createdAt,value
2022-09-10T00:00:45.054Z,100714.42
2022-09-10T00:03:15.545Z,100712.64
2022-09-10T00:06:06.545Z,100711.55
2022-09-10T00:08:38.193Z,100709.01
2022-09-10T00:11:10.827Z,100711.30
2022-09-10T00:13:41.909Z,100709.10
2022-09-10T00:16:15.266Z,100712.64
2022-09-10T00:18:47.792Z,100712.64
2022-09-10T00:21:20.488Z,100710.25
2022-09-10T00:23:53.231Z,100707.46
2022-09-10T00:26:27.489Z,100707.46
2022-09-10T00:29:01.367Z,100707.46
2022-09-10T00:31:34.269Z,100701.30
2022-09-10T00:34:06.063Z,100698.84
2022-09-10T00:36:39.443Z,100703.77
2022-09-10T00:39:16.025Z,100699.19
2022-09-10T00:41:48.352Z,100708.12
2022-09-10T00:44:44.196Z,100708.61
2022-09-10T00:47:17.405Z,100694.33
2022-09-10T00:49:51.504Z,100694.41
2022-09-10T00:52:22.392Z,100701.48
2022-09-10T00:54:52.743Z,100695.91
2022-09-10T00:57:24.541Z,100698.20
2022-09-10T00:59:57.711Z,100698.20
2022-09-10T01:02:28.509Z,100697.36
2022-09-10T01:04:59.307Z,100707.38
2022-09-10T01:07:31.984Z,100706.97
2022-09-10T01:10:05.137Z,100706.47
2022-09-10T01:12:44.292Z,100697.80
2022-09-10T01:15:38.231Z,100695.90
2022-09-10T01:18:17.255Z,100679.08
2022-09-10T01:20:53.471Z,100682.11
2022-09-10T01:23:37.061Z,100683.69
2022-09-10T01:26:28.370Z,100692.52
2022-09-10T01:29:04.353Z,100687.03
2022-09-10T01:31:50.587Z,100680.16
2022-09-10T01:34:23.878Z,100681.45
2022-09-10T01:36:57.163Z,100687.78
2022-09-10T01:39:28.231Z,100689.42
2022-09-10T01:41:58.926Z,100692.86
2022-09-10T01:44:43.518Z,100689.42
2022-09-10T01:47:28.615Z,100690.07
2022-09-10T01:50:33.368Z,100686.48
2022-09-10T01:53:27.642Z,100690.72
2022-09-10T01:56:29.496Z,100683.02
2022-09-10T01:59:02.634Z,100678.18
2022-09-10T02:01:45.114Z,100680.72
2022-09-10T02:04:17.838Z,100686.89
2022-09-10T02:06:50.571Z,100681.86
2022-09-10T02:09:21.104Z,100680.63
2022-09-10T02:11:54.291Z,100680.63
2022-09-10T02:14:25.383Z,100675.05
2022-09-10T02:16:57.353Z,100684.80
2022-09-10T02:19:28.404Z,100686.39
2022-09-10T02:21:59.805Z,100685.14
2022-09-10T02:24:30.058Z,100679.08
2022-09-10T02:27:00.756Z,100674.48
2022-09-10T02:29:31.139Z,100674.48
2022-09-10T02:32:01.585Z,100667.85
2022-09-10T02:34:33.060Z,100666.22
2022-09-10T02:37:03.941Z,100666.22
2022-09-10T02:39:34.285Z,100664.88
2022-09-10T02:42:08.237Z,100653.64
2022-09-10T02:44:38.982Z,100652.83
2022-09-10T02:47:12.444Z,100653.33
2022-09-10T02:49:42.584Z,100658.01
2022-09-10T02:52:12.879Z,100658.01
2022-09-10T02:54:43.580Z,100655.62
2022-09-10T02:57:13.833Z,100650.84
2022-09-10T02:59:44.132Z,100650.79
2022-09-10T03:02:14.551Z,100658.97
2022-09-10T03:04:45.606Z,100656.42
2022-09-10T03:07:15.974Z,100656.42
2022-09-10T03:09:49.029Z,100662.34
2022-09-10T03:12:19.134Z,100662.34
2022-09-10T03:14:49.539Z,100656.11
2022-09-10T03:17:19.935Z,100656.77
2022-09-10T03:19:50.339Z,100659.24
2022-09-10T03:22:20.603Z,100653.89
2022-09-10T03:24:50.894Z,100658.25
2022-09-10T03:27:21.271Z,100658.25
2022-09-10T03:29:51.553Z,100651.19
2022-09-10T03:32:21.916Z,100648.55
2022-09-10T03:34:52.351Z,100653.98
2022-09-10T03:37:22.644Z,100644.72
2022-09-10T03:39:52.983Z,100652.33
2022-09-10T03:42:23.302Z,100653.28
2022-09-10T03:44:53.882Z,100653.28
2022-09-10T03:47:24.527Z,100656.90
2022-09-10T03:49:54.882Z,100656.90
2022-09-10T03:52:26.304Z,100661.31
2022-09-10T03:54:56.913Z,100668.44
2022-09-10T03:57:27.257Z,100667.70
2022-09-10T03:59:57.536Z,100661.88
2022-09-10T04:02:27.945Z,100661.88
2022-09-10T04:04:58.377Z,100679.34
2022-09-10T04:07:28.563Z,100675.72
2022-09-10T04:09:58.860Z,100675.72
2022-09-10T04:12:30.474Z,100685.72
2022-09-10T04:15:01.022Z,100676.45
2022-09-10T04:17:31.492Z,100671.52
2022-09-10T04:20:01.890Z,100671.52
2022-09-10T04:22:32.465Z,100675.50
2022-09-10T04:25:02.984Z,100671.08
2022-09-10T04:27:33.357Z,100665.06
2022-09-10T04:30:03.609Z,100671.88
2022-09-10T04:32:34.193Z,100658.60
2022-09-10T04:35:05.539Z,100661.33
2022-09-10T04:37:36.527Z,100657.66
2022-09-10T04:42:49.246Z,100672.23
2022-09-10T04:45:19.607Z,100667.23
2022-09-10T04:47:49.849Z,100667.23
2022-09-10T04:50:20.346Z,100671.91
2022-09-10T04:52:50.563Z,100681.86
2022-09-10T04:55:20.950Z,100685.21
2022-09-10T04:57:51.276Z,100683.66
2022-09-10T05:00:21.664Z,100681.27
2022-09-10T05:02:51.847Z,100688.89
2022-09-10T05:05:22.188Z,100674.79
2022-09-10T05:07:52.609Z,100678.17
2022-09-10T05:10:23.299Z,100679.08
2022-09-10T05:12:54.537Z,100673.50
2022-09-10T05:15:25.486Z,100673.66
2022-09-10T05:17:55.872Z,100691.03
2022-09-10T05:20:26.676Z,100688.25
2022-09-10T05:22:57.241Z,100688.25
2022-09-10T05:25:27.848Z,100694.25
2022-09-10T05:27:58.422Z,100696.06
2022-09-10T05:30:30.543Z,100699.44
2022-09-10T05:33:02.005Z,100695.06
2022-09-10T05:35:32.625Z,100706.97
2022-09-10T05:38:03.821Z,100706.97
2022-09-10T05:40:38.906Z,100704.83
2022-09-10T05:43:10.344Z,100703.28
2022-09-10T05:45:42.657Z,100700.73
2022-09-10T05:48:13.164Z,100700.73
2022-09-10T05:50:44.816Z,100703.22
2022-09-10T05:53:15.659Z,100702.78
2022-09-10T05:55:46.402Z,100691.03
2022-09-10T05:58:16.746Z,100700.15
2022-09-10T06:00:54.761Z,100699.84
2022-09-10T06:03:25.110Z,100702.13
2022-09-10T06:05:55.767Z,100702.13
2022-09-10T06:08:26.706Z,100707.64
2022-09-10T06:11:00.550Z,100693.85
2022-09-10T06:13:31.454Z,100693.85
2022-09-10T06:16:02.433Z,100697.94
2022-09-10T06:18:45.246Z,100693.18
2022-09-10T06:21:17.746Z,100693.26
2022-09-10T06:23:49.559Z,100693.26
2022-09-10T06:26:19.769Z,100702.38
2022-09-10T06:28:51.580Z,100702.54
2022-09-10T06:31:21.958Z,100696.36
2022-09-10T06:33:52.225Z,100703.42
2022-09-10T06:36:22.817Z,100695.97
2022-09-10T06:38:53.026Z,100699.91
2022-09-10T06:41:23.713Z,100699.91
2022-09-10T06:43:54.521Z,100699.60
2022-09-10T06:47:01.715Z,100699.60
2022-09-10T06:48:57.571Z,100707.63
2022-09-10T06:51:45.829Z,100705.43
2022-09-10T06:54:20.911Z,100712.45
2022-09-10T06:56:54.629Z,100705.98
2022-09-10T06:59:24.951Z,100729.22
2022-09-10T07:01:55.658Z,100729.22
2022-09-10T07:04:25.884Z,100716.48
2022-09-10T07:06:56.640Z,100716.23
2022-09-10T07:09:26.975Z,100716.23
2022-09-10T07:11:58.883Z,100719.27
2022-09-10T07:14:29.355Z,100719.27
2022-09-10T07:17:00.100Z,100718.61
2022-09-10T07:19:30.688Z,100754.91
2022-09-10T07:22:01.023Z,100724.36
2022-09-10T07:24:31.701Z,100722.63
2022-09-10T07:27:02.097Z,100722.63
2022-09-10T07:29:33.333Z,100729.72
2022-09-10T07:32:03.805Z,100727.65
2022-09-10T07:34:34.501Z,100727.65
2022-09-10T07:37:05.125Z,100718.03
2022-09-10T07:39:36.030Z,100718.28
2022-09-10T07:42:06.712Z,100716.33
2022-09-10T07:44:37.818Z,100714.50
2022-09-10T07:47:08.136Z,100715.26
2022-09-10T07:49:39.483Z,100701.96
2022-09-10T07:52:09.726Z,100703.52
2022-09-10T07:54:40.022Z,100699.59
2022-09-10T07:57:10.700Z,100699.59
2022-09-10T07:59:41.056Z,100701.06
2022-09-10T08:02:15.808Z,100700.97
2022-09-10T08:04:47.129Z,100705.56
2022-09-10T08:07:17.543Z,100704.97
2022-09-10T08:09:47.762Z,100710.26
2022-09-10T08:12:18.471Z,100710.26
2022-09-10T08:14:48.676Z,100704.81
2022-09-10T08:17:19.393Z,100710.09
2022-09-10T08:19:49.885Z,100709.89
2022-09-10T08:22:20.144Z,100709.35
2022-09-10T08:24:50.266Z,100711.96
2022-09-10T08:27:20.569Z,100711.16
2022-09-10T08:29:50.846Z,100709.17
2022-09-10T08:32:21.919Z,100705.98
2022-09-10T08:34:52.331Z,100688.98
2022-09-10T08:37:22.675Z,100689.39
2022-09-10T08:39:53.057Z,100692.42
2022-09-10T08:42:38.741Z,100694.78
2022-09-10T08:45:29.879Z,100689.16
2022-09-10T08:48:08.813Z,100691.27
2022-09-10T08:53:45.182Z,100693.60
2022-09-10T08:56:18.801Z,100680.89
2022-09-10T08:59:00.990Z,100680.89
2022-09-10T09:01:37.046Z,100670.87
2022-09-10T09:04:19.162Z,100672.61
2022-09-10T09:06:52.544Z,100674.47
2022-09-10T09:09:23.299Z,100675.38
2022-09-10T09:12:32.873Z,100675.38
2022-09-10T09:15:17.941Z,100688.46
2022-09-10T09:17:56.982Z,100684.42
2022-09-10T09:20:35.813Z,100682.75
2022-09-10T09:23:10.073Z,100686.62
2022-09-10T09:25:49.268Z,100686.62
2022-09-10T09:31:50.542Z,100676.53
2022-09-10T09:34:35.703Z,100667.48
2022-09-10T09:37:12.026Z,100674.50
2022-09-10T09:40:01.578Z,100666.50
2022-09-10T09:42:55.849Z,100666.50
2022-09-10T09:46:01.856Z,100664.46
2022-09-10T09:48:40.235Z,100655.81
2022-09-10T09:51:13.351Z,100655.81
2022-09-10T09:53:48.964Z,100648.88
2022-09-10T09:56:23.526Z,100644.00
2022-09-10T09:58:54.279Z,100637.64
2022-09-10T10:01:26.574Z,100649.73
2022-09-10T10:03:59.460Z,100644.63
2022-09-10T10:06:32.374Z,100644.63
2022-09-10T10:09:06.361Z,100642.55
2022-09-10T10:11:42.521Z,100650.11
2022-09-10T10:14:15.911Z,100645.96
2022-09-10T10:16:50.814Z,100644.00
2022-09-10T10:19:33.539Z,100646.28
2022-09-10T10:22:22.363Z,100644.64
2022-09-10T10:24:53.168Z,100644.64
2022-09-10T10:27:29.292Z,100637.61
2022-09-10T10:30:14.786Z,100637.61
2022-09-10T10:32:53.866Z,100647.28
2022-09-10T10:36:02.238Z,100658.04
2022-09-10T10:41:33.099Z,100655.88
2022-09-10T10:44:35.137Z,100645.30
2022-09-10T10:47:14.133Z,100630.46
2022-09-10T10:53:10.699Z,100633.95
2022-09-10T10:55:51.252Z,100633.95
2022-09-10T10:58:24.515Z,100621.37
2022-09-10T11:00:57.675Z,100614.02
2022-09-10T11:03:36.556Z,100612.02
2022-09-10T11:06:25.147Z,100609.48
2022-09-10T11:08:58.651Z,100605.48
2022-09-10T11:11:49.932Z,100600.26
2022-09-10T11:14:35.264Z,100600.26
2022-09-10T11:17:15.067Z,100596.63
2022-09-10T11:20:28.586Z,100596.63
2022-09-10T11:23:04.052Z,100588.69
2022-09-10T11:25:40.542Z,100593.72
2022-09-10T11:28:14.019Z,100588.12
2022-09-10T11:30:47.915Z,100582.84
2022-09-10T11:33:23.843Z,100578.19
2022-09-10T11:36:23.954Z,100578.19
2022-09-10T11:39:22.640Z,100574.32
2022-09-10T11:41:55.116Z,100563.58
2022-09-10T11:44:43.693Z,100554.12
2022-09-10T11:50:38.099Z,100556.36
2022-09-10T11:53:11.333Z,100552.72
2022-09-10T11:55:59.413Z,100542.22
2022-09-10T11:58:49.128Z,100555.78
2022-09-10T12:01:47.366Z,100548.64
2022-09-10T12:07:54.642Z,100562.20
2022-09-10T12:10:37.102Z,100547.36
2022-09-10T12:13:14.745Z,100544.30
2022-09-10T12:15:56.905Z,100538.36
2022-09-10T12:18:33.038Z,100535.42
2022-09-10T12:21:26.771Z,100531.45
2022-09-10T12:23:58.799Z,100530.05
2022-09-10T12:26:29.965Z,100530.05
2022-09-10T12:29:23.459Z,100518.27
2022-09-10T12:32:13.421Z,100525.41
2022-09-10T12:34:43.791Z,100525.41
2022-09-10T12:37:40.567Z,100515.27
2022-09-10T12:40:28.358Z,100505.09
2022-09-10T12:43:04.314Z,100505.09
2022-09-10T12:46:06.186Z,100496.91
2022-09-10T12:48:40.029Z,100481.73
2022-09-10T12:51:19.211Z,100481.73
2022-09-10T12:54:11.800Z,100479.25
2022-09-10T12:56:53.758Z,100470.70
2022-09-10T12:59:50.809Z,100476.17
2022-09-10T13:02:33.238Z,100474.83
2022-09-10T13:05:26.189Z,100473.28
2022-09-10T13:08:06.707Z,100473.28
2022-09-10T13:10:38.014Z,100471.17
2022-09-10T13:13:11.142Z,100477.02
2022-09-10T13:15:49.438Z,100472.34
2022-09-10T13:18:36.934Z,100464.78
2022-09-10T13:21:29.411Z,100470.25
2022-09-10T13:24:03.059Z,100470.25
2022-09-10T13:26:36.509Z,100459.55
2022-09-10T13:29:12.860Z,100452.30
2022-09-10T13:31:48.648Z,100456.84
2022-09-10T13:34:33.451Z,100456.84
2022-09-10T13:37:27.551Z,100464.22
2022-09-10T13:40:30.870Z,100451.97
2022-09-10T13:43:23.827Z,100443.44
2022-09-10T13:46:06.486Z,100444.70
2022-09-10T13:48:51.472Z,100444.70
2022-09-10T13:51:36.630Z,100439.80
2022-09-10T13:54:18.823Z,100439.80
2022-09-10T13:56:50.549Z,100423.12
2022-09-10T13:59:26.933Z,100428.95
2022-09-10T14:01:58.184Z,100422.64
2022-09-10T14:04:37.926Z,100417.28
2022-09-10T14:07:20.646Z,100408.22
2022-09-10T14:09:53.756Z,100408.91
2022-09-10T14:12:27.211Z,100392.91
2022-09-10T14:15:00.878Z,100392.91
2022-09-10T14:17:37.563Z,100387.30
2022-09-10T14:20:38.105Z,100387.30
2022-09-10T14:23:16.468Z,100380.91
2022-09-10T14:25:47.203Z,100380.91
2022-09-10T14:28:22.934Z,100382.39
2022-09-10T14:30:56.272Z,100382.39
2022-09-10T14:33:36.893Z,100384.87
2022-09-10T14:36:30.692Z,100376.46
2022-09-10T14:39:18.675Z,100374.70
2022-09-10T14:41:51.585Z,100374.70
2022-09-10T14:44:27.658Z,100361.86
2022-09-10T14:47:09.658Z,100368.30
2022-09-10T14:49:46.379Z,100376.94
2022-09-10T14:52:17.130Z,100376.94
2022-09-10T14:54:47.464Z,100373.06
2022-09-10T14:57:17.830Z,100373.06
2022-09-10T14:59:48.189Z,100370.03
2022-09-10T15:02:29.590Z,100365.36
2022-09-10T15:05:06.032Z,100357.23
2022-09-10T15:07:42.317Z,100362.23
2022-09-10T15:10:13.815Z,100364.31
2022-09-10T15:12:49.181Z,100361.27
2022-09-10T15:15:19.662Z,100364.31
2022-09-10T15:17:50.769Z,100366.44
2022-09-10T15:20:23.659Z,100366.44
2022-09-10T15:22:53.061Z,100367.97
2022-09-10T15:28:28.130Z,100346.83
2022-09-10T15:30:58.786Z,100347.28
2022-09-10T15:33:29.187Z,100347.99
2022-09-10T15:35:59.353Z,100347.99
2022-09-10T15:38:29.686Z,100344.12
2022-09-10T15:41:13.993Z,100341.21
2022-09-10T15:43:45.010Z,100333.97
2022-09-10T15:46:16.828Z,100329.64
2022-09-10T15:48:47.386Z,100329.64
2022-09-10T15:51:20.831Z,100318.34
2022-09-10T15:53:52.429Z,100314.39
2022-09-10T15:56:24.310Z,100314.39
2022-09-10T15:58:56.847Z,100295.91
2022-09-10T16:01:28.265Z,100302.25
2022-09-10T16:04:00.675Z,100302.25
2022-09-10T16:06:33.275Z,100299.66
2022-09-10T16:09:12.190Z,100301.19
2022-09-10T16:11:54.017Z,100301.20
2022-09-10T16:14:24.468Z,100294.42
2022-09-10T16:16:55.276Z,100301.44
2022-09-10T16:19:25.572Z,100293.63
2022-09-10T16:21:55.746Z,100294.78
2022-09-10T16:24:26.090Z,100294.78
2022-09-10T16:26:56.646Z,100276.58
2022-09-10T16:29:27.057Z,100278.88
2022-09-10T16:31:57.603Z,100278.88
2022-09-10T16:34:27.874Z,100271.88
2022-09-10T16:37:06.633Z,100276.45
2022-09-10T16:39:43.422Z,100285.31
2022-09-10T16:42:15.869Z,100290.22
2022-09-10T16:44:46.195Z,100288.59
2022-09-10T16:47:16.596Z,100288.59
2022-09-10T16:49:47.725Z,100294.43
2022-09-10T16:52:18.020Z,100294.43
2022-09-10T16:54:48.423Z,100290.84
2022-09-10T16:57:18.737Z,100281.50
2022-09-10T16:59:50.477Z,100281.50
2022-09-10T17:02:21.076Z,100276.73
2022-09-10T17:04:51.634Z,100284.44
2022-09-10T17:07:22.939Z,100287.80
2022-09-10T17:09:56.369Z,100287.80
2022-09-10T17:12:25.236Z,100280.34
2022-09-10T17:14:55.619Z,100288.88
2022-09-10T17:17:25.872Z,100289.80
2022-09-10T17:19:56.266Z,100288.31
2022-09-10T17:22:26.543Z,100288.31
2022-09-10T17:24:56.934Z,100285.05
2022-09-10T17:27:27.410Z,100279.22
2022-09-10T17:29:58.333Z,100277.34
2022-09-10T17:32:28.952Z,100277.34
2022-09-10T17:35:02.561Z,100268.36
2022-09-10T17:37:34.037Z,100268.02
2022-09-10T17:40:05.870Z,100265.69
2022-09-10T17:42:36.534Z,100265.69
2022-09-10T17:45:07.701Z,100251.88
2022-09-10T17:47:38.323Z,100254.72
2022-09-10T17:50:09.269Z,100254.72
2022-09-10T17:52:42.037Z,100235.66
2022-09-10T17:55:12.416Z,100235.66
2022-09-10T17:57:42.632Z,100229.23
2022-09-10T18:00:15.906Z,100241.68
2022-09-10T18:02:46.422Z,100241.68
2022-09-10T18:05:20.616Z,100252.99
2022-09-10T18:07:52.605Z,100246.95
2022-09-10T18:10:23.047Z,100246.95
2022-09-10T18:13:00.202Z,100242.02
2022-09-10T18:15:29.365Z,100248.31
2022-09-10T18:18:01.639Z,100250.62
2022-09-10T18:20:31.982Z,100250.62
2022-09-10T18:23:02.432Z,100246.58
2022-09-10T18:25:34.984Z,100244.92
2022-09-10T18:28:05.649Z,100237.91
2022-09-10T18:30:36.034Z,100241.17
2022-09-10T18:33:09.264Z,100237.20
2022-09-10T18:35:42.818Z,100237.20
2022-09-10T18:38:17.322Z,100231.02
2022-09-10T18:40:47.922Z,100233.59
2022-09-10T18:43:18.414Z,100230.64
2022-09-10T18:45:50.515Z,100230.64
2022-09-10T18:48:20.977Z,100226.81
2022-09-10T18:50:51.657Z,100226.78
2022-09-10T18:53:22.223Z,100223.64
2022-09-10T18:55:52.773Z,100208.05
2022-09-10T18:58:23.148Z,100208.05
2022-09-10T19:00:57.979Z,100190.13
2022-09-10T19:03:25.544Z,100190.13
2022-09-10T19:05:56.045Z,100189.42
2022-09-10T19:08:32.076Z,100161.66
2022-09-10T19:11:12.269Z,100177.49
2022-09-10T19:13:43.434Z,100164.34
2022-09-10T19:16:17.078Z,100164.34
2022-09-10T19:18:55.537Z,100160.53
2022-09-10T19:21:31.509Z,100159.91
2022-09-10T19:24:04.261Z,100174.95
2022-09-10T19:26:35.567Z,100156.92
2022-09-10T19:29:07.597Z,100160.41
2022-09-10T19:31:40.012Z,100154.73
2022-09-10T19:34:13.517Z,100154.88
2022-09-10T19:36:44.799Z,100162.37
2022-09-10T19:39:22.693Z,100162.37
2022-09-10T19:41:53.098Z,100158.67
2022-09-10T19:44:26.974Z,100162.45
2022-09-10T19:46:57.500Z,100160.75
2022-09-10T19:49:27.799Z,100156.73
2022-09-10T19:52:01.861Z,100148.31
2022-09-10T19:54:32.899Z,100148.31
2022-09-10T19:57:05.120Z,100139.36
2022-09-10T19:59:39.800Z,100139.36
2022-09-10T20:05:13.503Z,100151.65
2022-09-10T20:07:46.171Z,100141.61
2022-09-10T20:10:16.733Z,100146.86
2022-09-10T20:12:47.138Z,100146.86
2022-09-10T20:15:18.037Z,100149.41
2022-09-10T20:17:48.589Z,100140.29
2022-09-10T20:20:19.160Z,100140.29
2022-09-10T20:22:49.382Z,100133.05
2022-09-10T20:25:19.508Z,100133.05
2022-09-10T20:27:49.909Z,100134.91
2022-09-10T20:30:20.596Z,100127.16
2022-09-10T20:32:50.767Z,100121.16
2022-09-10T20:35:20.956Z,100121.16
2022-09-10T20:37:51.873Z,100103.09
2022-09-10T20:40:22.553Z,100103.09
2022-09-10T20:42:52.838Z,100112.02
2022-09-10T20:45:22.979Z,100107.28
2022-09-10T20:47:53.583Z,100109.36
2022-09-10T20:50:23.817Z,100092.81
2022-09-10T20:52:54.230Z,100092.81
2022-09-10T20:55:24.836Z,100093.42
2022-09-10T20:57:55.227Z,100089.21
2022-09-10T21:00:25.532Z,100094.77
2022-09-10T21:02:55.797Z,100079.38
2022-09-10T21:05:26.211Z,100090.62
2022-09-10T21:07:56.437Z,100085.29
2022-09-10T21:10:26.724Z,100083.15
2022-09-10T21:12:57.066Z,100087.30
2022-09-10T21:15:27.593Z,100087.30
2022-09-10T21:17:58.212Z,100102.58
2022-09-10T21:20:28.676Z,100091.73
2022-09-10T21:22:58.992Z,100081.08
2022-09-10T21:25:29.264Z,100080.50
2022-09-10T21:27:59.723Z,100080.50
2022-09-10T21:30:30.147Z,100080.06
2022-09-10T21:33:00.479Z,100063.95
2022-09-10T21:35:30.772Z,100065.64
2022-09-10T21:38:00.993Z,100068.06
2022-09-10T21:40:31.290Z,100068.06
2022-09-10T21:43:01.447Z,100070.02
2022-09-10T21:45:33.300Z,100066.53
2022-09-10T21:48:03.678Z,100072.72
2022-09-10T21:50:33.923Z,100077.98
2022-09-10T21:53:04.148Z,100077.98
2022-09-10T21:55:34.618Z,100085.45
2022-09-10T21:58:05.168Z,100086.53
2022-09-10T22:00:35.808Z,100086.53
2022-09-10T22:03:06.081Z,100083.44
2022-09-10T22:05:36.783Z,100088.03
2022-09-10T22:08:08.511Z,100099.55
2022-09-10T22:10:39.808Z,100099.55
2022-09-10T22:13:10.415Z,100092.30
2022-09-10T22:15:42.064Z,100088.25
2022-09-10T22:18:12.770Z,100087.58
2022-09-10T22:20:43.012Z,100082.42
2022-09-10T22:23:13.298Z,100085.36
2022-09-10T22:25:43.661Z,100085.36
2022-09-10T22:28:14.850Z,100083.88
2022-09-10T22:30:45.247Z,100074.57
2022-09-10T22:33:15.415Z,100074.57
2022-09-10T22:35:45.666Z,100086.97
2022-09-10T22:38:19.538Z,100090.22
2022-09-10T22:40:47.925Z,100081.14
2022-09-10T22:43:18.316Z,100084.90
2022-09-10T22:45:48.581Z,100068.06
2022-09-10T22:48:18.827Z,100068.06
2022-09-10T22:50:49.149Z,100064.74
2022-09-10T22:53:19.387Z,100065.64
2022-09-10T22:55:49.992Z,100068.44
2022-09-10T22:58:20.234Z,100068.44
2022-09-10T23:00:51.333Z,100064.86
2022-09-10T23:03:22.251Z,100066.99
2022-09-10T23:05:55.436Z,100066.99
2022-09-10T23:08:25.752Z,100067.27
2022-09-10T23:10:56.263Z,100052.64
2022-09-10T23:13:26.492Z,100067.60
2022-09-10T23:15:56.746Z,100072.73
2022-09-10T23:18:27.131Z,100072.70
2022-09-10T23:21:03.010Z,100072.70
2022-09-10T23:23:33.925Z,100077.81
2022-09-10T23:26:10.954Z,100082.70
2022-09-10T23:28:41.789Z,100080.35
2022-09-10T23:31:15.277Z,100088.38
2022-09-10T23:33:47.821Z,100095.72
2022-09-10T23:36:18.707Z,100097.72
2022-09-10T23:38:49.203Z,100102.16
2022-09-10T23:41:19.494Z,100096.52
2022-09-10T23:43:49.768Z,100099.13
2022-09-10T23:46:20.168Z,100099.13
2022-09-10T23:48:50.453Z,100091.87
2022-09-10T23:51:21.329Z,100090.69
2022-09-10T23:53:51.774Z,100088.94
2022-09-10T23:56:23.720Z,100088.94
2022-09-10T23:58:54.045Z,100087.31
